KMOD/MOD METAR and TAF weather

Enter ICAO airport designator
Station Type Date Time Source
KMOD METAR 2020/01/27 16:53 UTC NOAA

KMOD 271653Z 35005KT 10SM CLR 11/06 A3038 RMK AO2 SLP286 T01060061


Station Type Date Time Source
KMOD Decoded METAR 2020/01/27 16:53 UTC NOAA

MODESTO CITY CO SHAM FLD, CA, United States (KMOD) 37-37N 120-57W 29M
Jan 27, 2020 - 11:53 AM EST / 2020.01.27 1653 UTC
Wind: from the N (350 degrees) at 6 MPH (5 KT):0
Visibility: 10 mile(s):0
Sky conditions: clear
Temperature: 51.1 F (10.6 C)
Dew Point: 43.0 F (6.1 C)
Relative Humidity: 73%
Pressure (altimeter): 30.38 in. Hg (1028 hPa)
ob: KMOD 271653Z 35005KT 10SM CLR 11/06 A3038 RMK AO2 SLP286 T01060061
cycle: 17

Station Type Date Time Source
KMOD TAF 2020/01/27 12:25 UTC NOAA

TAF KMOD 271120Z 2712/2812 VRB04KT P6SM SCT100 BKN250
TEMPO 2713/2717 4SM BR SCT005

Example: see airport list